sensor_id;sensor_type;location;lat;lon;timestamp;P1;durP1;ratioP1;P2;durP2;ratioP2
17592;SDS011;8915;51.760;14.300;2024-01-07T00:00:05;10.83;;;5.90;;
17592;SDS011;8915;51.760;14.300;2024-01-07T00:02:33;10.43;;;6.23;;
17592;SDS011;8915;51.760;14.300;2024-01-07T00:04:59;11.83;;;6.63;;
17592;SDS011;8915;51.760;14.300;2024-01-07T00:07:26;10.80;;;5.87;;
17592;SDS011;8915;51.760;14.300;2024-01-07T00:09:53;10.20;;;5.40;;
17592;SDS011;8915;51.760;14.300;2024-01-07T00:12:19;13.77;;;6.37;;
17592;SDS011;8915;51.760;14.300;2024-01-07T00:14:45;10.30;;;5.80;;
17592;SDS011;8915;51.760;14.300;2024-01-07T00:17:13;13.33;;;6.23;;
17592;SDS011;8915;51.760;14.300;2024-01-07T00:19:40;9.33;;;5.53;;
17592;SDS011;8915;51.760;14.300;2024-01-07T00:22:06;9.87;;;5.30;;
17592;SDS011;8915;51.760;14.300;2024-01-07T00:24:33;9.83;;;5.97;;
17592;SDS011;8915;51.760;14.300;2024-01-07T00:26:59;10.20;;;5.80;;
17592;SDS011;8915;51.760;14.300;2024-01-07T00:29:25;9.50;;;5.60;;
17592;SDS011;8915;51.760;14.300;2024-01-07T00:31:52;14.27;;;7.17;;
17592;SDS011;8915;51.760;14.300;2024-01-07T00:34:19;12.33;;;6.40;;
17592;SDS011;8915;51.760;14.300;2024-01-07T00:36:46;9.67;;;5.77;;
17592;SDS011;8915;51.760;14.300;2024-01-07T00:39:12;9.97;;;5.93;;
17592;SDS011;8915;51.760;14.300;2024-01-07T00:41:38;14.30;;;7.10;;
17592;SDS011;8915;51.760;14.300;2024-01-07T00:44:05;13.73;;;6.10;;
17592;SDS011;8915;51.760;14.300;2024-01-07T00:46:31;11.70;;;6.30;;
17592;SDS011;8915;51.760;14.300;2024-01-07T00:48:58;13.57;;;6.33;;
17592;SDS011;8915;51.760;14.300;2024-01-07T00:51:25;11.67;;;6.37;;
17592;SDS011;8915;51.760;14.300;2024-01-07T00:53:52;10.10;;;5.97;;
17592;SDS011;8915;51.760;14.300;2024-01-07T00:56:18;14.97;;;7.17;;
17592;SDS011;8915;51.760;14.300;2024-01-07T00:58:44;10.27;;;5.17;;
17592;SDS011;8915;51.760;14.300;2024-01-07T01:01:11;13.40;;;6.43;;
17592;SDS011;8915;51.760;14.300;2024-01-07T01:03:37;11.43;;;5.53;;
17592;SDS011;8915;51.760;14.300;2024-01-07T01:06:03;10.93;;;5.50;;
17592;SDS011;8915;51.760;14.300;2024-01-07T01:08:31;14.27;;;5.90;;
17592;SDS011;8915;51.760;14.300;2024-01-07T01:10:58;10.20;;;5.60;;
17592;SDS011;8915;51.760;14.300;2024-01-07T01:13:24;13.13;;;6.37;;
17592;SDS011;8915;51.760;14.300;2024-01-07T01:15:50;11.03;;;5.63;;
17592;SDS011;8915;51.760;14.300;2024-01-07T01:18:17;10.53;;;5.73;;
17592;SDS011;8915;51.760;14.300;2024-01-07T01:20:43;13.53;;;5.70;;
17592;SDS011;8915;51.760;14.300;2024-01-07T01:23:10;10.80;;;5.70;;
17592;SDS011;8915;51.760;14.300;2024-01-07T01:25:37;10.07;;;5.20;;
17592;SDS011;8915;51.760;14.300;2024-01-07T01:28:05;12.03;;;6.00;;
17592;SDS011;8915;51.760;14.300;2024-01-07T01:30:31;9.93;;;5.53;;
17592;SDS011;8915;51.760;14.300;2024-01-07T01:32:58;10.37;;;5.50;;
17592;SDS011;8915;51.760;14.300;2024-01-07T01:35:25;10.73;;;5.73;;
17592;SDS011;8915;51.760;14.300;2024-01-07T01:37:52;9.07;;;4.77;;
17592;SDS011;8915;51.760;14.300;2024-01-07T01:40:19;10.87;;;5.57;;
17592;SDS011;8915;51.760;14.300;2024-01-07T01:42:47;12.17;;;5.90;;
17592;SDS011;8915;51.760;14.300;2024-01-07T01:45:14;11.37;;;6.27;;
17592;SDS011;8915;51.760;14.300;2024-01-07T01:47:40;10.37;;;5.77;;
17592;SDS011;8915;51.760;14.300;2024-01-07T01:50:08;12.50;;;5.70;;
17592;SDS011;8915;51.760;14.300;2024-01-07T01:52:34;11.67;;;5.43;;
17592;SDS011;8915;51.760;14.300;2024-01-07T01:55:01;12.80;;;5.20;;
17592;SDS011;8915;51.760;14.300;2024-01-07T01:57:28;9.17;;;4.93;;
17592;SDS011;8915;51.760;14.300;2024-01-07T02:00:01;8.67;;;4.70;;
17592;SDS011;8915;51.760;14.300;2024-01-07T02:02:30;13.13;;;5.23;;
17592;SDS011;8915;51.760;14.300;2024-01-07T02:04:59;9.80;;;5.30;;
17592;SDS011;8915;51.760;14.300;2024-01-07T02:07:27;7.83;;;4.73;;
17592;SDS011;8915;51.760;14.300;2024-01-07T02:09:54;9.60;;;5.27;;
17592;SDS011;8915;51.760;14.300;2024-01-07T02:12:20;7.53;;;4.60;;
17592;SDS011;8915;51.760;14.300;2024-01-07T02:14:47;8.13;;;5.13;;
17592;SDS011;8915;51.760;14.300;2024-01-07T02:17:15;8.57;;;4.77;;
17592;SDS011;8915;51.760;14.300;2024-01-07T02:19:42;8.37;;;4.73;;
17592;SDS011;8915;51.760;14.300;2024-01-07T02:22:08;8.07;;;4.90;;
17592;SDS011;8915;51.760;14.300;2024-01-07T02:24:36;6.00;;;4.20;;
17592;SDS011;8915;51.760;14.300;2024-01-07T02:27:02;10.07;;;4.77;;
17592;SDS011;8915;51.760;14.300;2024-01-07T02:29:29;13.67;;;4.73;;
17592;SDS011;8915;51.760;14.300;2024-01-07T02:31:55;7.13;;;4.70;;
17592;SDS011;8915;51.760;14.300;2024-01-07T02:34:21;7.83;;;4.80;;
17592;SDS011;8915;51.760;14.300;2024-01-07T02:36:48;8.73;;;5.40;;
17592;SDS011;8915;51.760;14.300;2024-01-07T02:39:14;10.57;;;4.53;;
17592;SDS011;8915;51.760;14.300;2024-01-07T02:41:42;8.43;;;4.53;;
17592;SDS011;8915;51.760;14.300;2024-01-07T02:44:08;7.67;;;4.37;;
17592;SDS011;8915;51.760;14.300;2024-01-07T02:46:34;6.80;;;4.00;;
17592;SDS011;8915;51.760;14.300;2024-01-07T02:49:01;8.67;;;3.77;;
17592;SDS011;8915;51.760;14.300;2024-01-07T02:51:27;8.17;;;4.07;;
17592;SDS011;8915;51.760;14.300;2024-01-07T02:53:53;7.57;;;3.67;;
17592;SDS011;8915;51.760;14.300;2024-01-07T02:56:20;9.13;;;4.43;;
17592;SDS011;8915;51.760;14.300;2024-01-07T02:58:48;6.90;;;3.87;;
17592;SDS011;8915;51.760;14.300;2024-01-07T03:01:14;7.27;;;4.37;;
17592;SDS011;8915;51.760;14.300;2024-01-07T03:03:41;6.87;;;3.93;;
17592;SDS011;8915;51.760;14.300;2024-01-07T03:06:07;10.43;;;4.43;;
17592;SDS011;8915;51.760;14.300;2024-01-07T03:08:33;7.50;;;4.20;;
17592;SDS011;8915;51.760;14.300;2024-01-07T03:11:04;7.13;;;4.07;;
17592;SDS011;8915;51.760;14.300;2024-01-07T03:13:31;9.80;;;4.43;;
17592;SDS011;8915;51.760;14.300;2024-01-07T03:15:58;9.10;;;3.93;;
17592;SDS011;8915;51.760;14.300;2024-01-07T03:18:26;7.87;;;3.90;;
17592;SDS011;8915;51.760;14.300;2024-01-07T03:20:52;10.10;;;5.00;;
17592;SDS011;8915;51.760;14.300;2024-01-07T03:23:19;7.17;;;4.27;;
17592;SDS011;8915;51.760;14.300;2024-01-07T03:25:45;6.97;;;4.23;;
17592;SDS011;8915;51.760;14.300;2024-01-07T03:28:11;9.23;;;4.23;;
17592;SDS011;8915;51.760;14.300;2024-01-07T03:30:38;9.03;;;4.03;;
17592;SDS011;8915;51.760;14.300;2024-01-07T03:33:05;6.10;;;3.70;;
17592;SDS011;8915;51.760;14.300;2024-01-07T03:35:32;8.23;;;4.53;;
17592;SDS011;8915;51.760;14.300;2024-01-07T03:37:58;9.40;;;4.13;;
17592;SDS011;8915;51.760;14.300;2024-01-07T03:40:24;9.60;;;4.60;;
17592;SDS011;8915;51.760;14.300;2024-01-07T03:42:51;8.10;;;4.00;;
17592;SDS011;8915;51.760;14.300;2024-01-07T03:45:17;5.70;;;3.40;;
17592;SDS011;8915;51.760;14.300;2024-01-07T03:47:43;10.30;;;5.60;;
17592;SDS011;8915;51.760;14.300;2024-01-07T03:50:11;5.60;;;3.70;;
17592;SDS011;8915;51.760;14.300;2024-01-07T03:52:37;7.40;;;4.30;;
17592;SDS011;8915;51.760;14.300;2024-01-07T03:55:04;6.10;;;3.67;;
17592;SDS011;8915;51.760;14.300;2024-01-07T03:57:31;6.27;;;3.70;;
17592;SDS011;8915;51.760;14.300;2024-01-07T03:59:58;8.13;;;4.60;;
17592;SDS011;8915;51.760;14.300;2024-01-07T04:02:24;5.87;;;3.43;;
17592;SDS011;8915;51.760;14.300;2024-01-07T04:04:51;4.60;;;3.23;;
17592;SDS011;8915;51.760;14.300;2024-01-07T04:07:18;12.43;;;5.90;;
17592;SDS011;8915;51.760;14.300;2024-01-07T04:09:45;7.43;;;4.37;;
17592;SDS011;8915;51.760;14.300;2024-01-07T04:12:11;6.97;;;3.27;;
17592;SDS011;8915;51.760;14.300;2024-01-07T04:14:38;4.57;;;2.90;;
17592;SDS011;8915;51.760;14.300;2024-01-07T04:17:04;6.07;;;4.00;;
17592;SDS011;8915;51.760;14.300;2024-01-07T04:19:33;7.00;;;3.60;;
17592;SDS011;8915;51.760;14.300;2024-01-07T04:21:59;4.97;;;3.27;;
17592;SDS011;8915;51.760;14.300;2024-01-07T04:24:27;4.20;;;3.20;;
17592;SDS011;8915;51.760;14.300;2024-01-07T04:26:53;4.23;;;3.20;;
17592;SDS011;8915;51.760;14.300;2024-01-07T04:29:19;7.63;;;3.53;;
17592;SDS011;8915;51.760;14.300;2024-01-07T04:31:46;6.43;;;3.70;;
17592;SDS011;8915;51.760;14.300;2024-01-07T04:34:12;5.30;;;3.17;;
17592;SDS011;8915;51.760;14.300;2024-01-07T04:36:38;5.90;;;3.20;;
17592;SDS011;8915;51.760;14.300;2024-01-07T04:39:05;7.93;;;3.23;;
17592;SDS011;8915;51.760;14.300;2024-01-07T04:41:32;4.33;;;2.77;;
17592;SDS011;8915;51.760;14.300;2024-01-07T04:43:59;3.27;;;2.70;;
17592;SDS011;8915;51.760;14.300;2024-01-07T04:46:25;6.23;;;3.43;;
17592;SDS011;8915;51.760;14.300;2024-01-07T04:48:51;4.97;;;2.87;;
17592;SDS011;8915;51.760;14.300;2024-01-07T04:51:18;3.70;;;2.70;;
17592;SDS011;8915;51.760;14.300;2024-01-07T04:53:44;3.10;;;2.47;;
17592;SDS011;8915;51.760;14.300;2024-01-07T04:56:11;4.87;;;3.20;;
17592;SDS011;8915;51.760;14.300;2024-01-07T04:58:39;4.23;;;2.30;;
17592;SDS011;8915;51.760;14.300;2024-01-07T05:01:06;3.97;;;2.67;;
17592;SDS011;8915;51.760;14.300;2024-01-07T05:03:32;4.20;;;2.63;;
17592;SDS011;8915;51.760;14.300;2024-01-07T05:05:59;4.63;;;3.10;;
17592;SDS011;8915;51.760;14.300;2024-01-07T05:08:26;10.53;;;4.73;;
17592;SDS011;8915;51.760;14.300;2024-01-07T05:10:53;3.47;;;2.20;;
17592;SDS011;8915;51.760;14.300;2024-01-07T05:13:19;5.00;;;2.43;;
17592;SDS011;8915;51.760;14.300;2024-01-07T05:15:47;4.63;;;2.63;;
17592;SDS011;8915;51.760;14.300;2024-01-07T05:18:18;5.90;;;2.40;;
17592;SDS011;8915;51.760;14.300;2024-01-07T05:20:45;4.33;;;3.07;;
17592;SDS011;8915;51.760;14.300;2024-01-07T05:23:11;3.47;;;2.07;;
17592;SDS011;8915;51.760;14.300;2024-01-07T05:25:37;3.53;;;2.33;;
17592;SDS011;8915;51.760;14.300;2024-01-07T05:28:04;2.97;;;2.17;;
17592;SDS011;8915;51.760;14.300;2024-01-07T05:30:31;3.07;;;2.20;;
17592;SDS011;8915;51.760;14.300;2024-01-07T05:32:59;3.63;;;2.60;;
17592;SDS011;8915;51.760;14.300;2024-01-07T05:35:25;3.77;;;2.20;;
17592;SDS011;8915;51.760;14.300;2024-01-07T05:37:51;3.17;;;2.17;;
17592;SDS011;8915;51.760;14.300;2024-01-07T05:40:18;3.50;;;2.20;;
17592;SDS011;8915;51.760;14.300;2024-01-07T05:42:44;3.33;;;2.10;;
17592;SDS011;8915;51.760;14.300;2024-01-07T05:45:11;2.37;;;1.77;;
17592;SDS011;8915;51.760;14.300;2024-01-07T05:47:37;4.93;;;2.50;;
17592;SDS011;8915;51.760;14.300;2024-01-07T05:50:05;3.20;;;2.07;;
17592;SDS011;8915;51.760;14.300;2024-01-07T05:52:31;5.73;;;3.10;;
17592;SDS011;8915;51.760;14.300;2024-01-07T05:54:58;2.53;;;1.93;;
17592;SDS011;8915;51.760;14.300;2024-01-07T05:57:24;4.53;;;2.10;;
17592;SDS011;8915;51.760;14.300;2024-01-07T05:59:50;3.40;;;2.67;;
17592;SDS011;8915;51.760;14.300;2024-01-07T06:02:17;8.47;;;5.03;;
17592;SDS011;8915;51.760;14.300;2024-01-07T06:04:44;3.00;;;2.37;;
17592;SDS011;8915;51.760;14.300;2024-01-07T06:07:11;5.40;;;2.83;;
17592;SDS011;8915;51.760;14.300;2024-01-07T06:09:38;6.17;;;3.37;;
17592;SDS011;8915;51.760;14.300;2024-01-07T06:12:04;6.03;;;2.47;;
17592;SDS011;8915;51.760;14.300;2024-01-07T06:14:31;2.87;;;1.97;;
17592;SDS011;8915;51.760;14.300;2024-01-07T06:16:57;2.70;;;1.90;;
17592;SDS011;8915;51.760;14.300;2024-01-07T06:19:23;3.43;;;2.30;;
17592;SDS011;8915;51.760;14.300;2024-01-07T06:21:51;3.70;;;1.87;;
17592;SDS011;8915;51.760;14.300;2024-01-07T06:24:19;3.27;;;1.87;;
17592;SDS011;8915;51.760;14.300;2024-01-07T06:26:45;3.33;;;2.50;;
17592;SDS011;8915;51.760;14.300;2024-01-07T06:29:11;2.70;;;1.90;;
17592;SDS011;8915;51.760;14.300;2024-01-07T06:31:47;2.63;;;2.03;;
17592;SDS011;8915;51.760;14.300;2024-01-07T06:34:13;6.17;;;2.10;;
17592;SDS011;8915;51.760;14.300;2024-01-07T06:36:40;2.53;;;1.93;;
17592;SDS011;8915;51.760;14.300;2024-01-07T06:39:07;2.47;;;1.70;;
17592;SDS011;8915;51.760;14.300;2024-01-07T06:41:35;2.03;;;1.60;;
17592;SDS011;8915;51.760;14.300;2024-01-07T06:44:01;2.07;;;1.60;;
17592;SDS011;8915;51.760;14.300;2024-01-07T06:46:28;3.10;;;2.10;;
17592;SDS011;8915;51.760;14.300;2024-01-07T06:48:54;2.97;;;1.70;;
17592;SDS011;8915;51.760;14.300;2024-01-07T06:51:20;3.63;;;2.00;;
17592;SDS011;8915;51.760;14.300;2024-01-07T06:53:47;2.00;;;1.40;;
17592;SDS011;8915;51.760;14.300;2024-01-07T06:56:15;2.60;;;2.00;;
17592;SDS011;8915;51.760;14.300;2024-01-07T06:58:43;3.53;;;2.10;;
17592;SDS011;8915;51.760;14.300;2024-01-07T07:01:09;2.60;;;1.93;;
17592;SDS011;8915;51.760;14.300;2024-01-07T07:03:36;2.77;;;1.80;;
17592;SDS011;8915;51.760;14.300;2024-01-07T07:06:03;2.07;;;1.87;;
17592;SDS011;8915;51.760;14.300;2024-01-07T07:08:29;1.93;;;1.63;;
17592;SDS011;8915;51.760;14.300;2024-01-07T07:10:56;4.53;;;2.23;;
17592;SDS011;8915;51.760;14.300;2024-01-07T07:13:22;2.33;;;1.90;;
17592;SDS011;8915;51.760;14.300;2024-01-07T07:15:50;1.97;;;1.73;;
17592;SDS011;8915;51.760;14.300;2024-01-07T07:18:16;1.83;;;1.63;;
17592;SDS011;8915;51.760;14.300;2024-01-07T07:20:42;2.77;;;2.10;;
17592;SDS011;8915;51.760;14.300;2024-01-07T07:23:09;3.33;;;2.10;;
17592;SDS011;8915;51.760;14.300;2024-01-07T07:25:35;2.33;;;1.90;;
17592;SDS011;8915;51.760;14.300;2024-01-07T07:28:01;3.07;;;2.07;;
17592;SDS011;8915;51.760;14.300;2024-01-07T07:30:28;2.17;;;1.73;;
17592;SDS011;8915;51.760;14.300;2024-01-07T07:32:56;5.03;;;2.07;;
17592;SDS011;8915;51.760;14.300;2024-01-07T07:35:23;2.20;;;2.00;;
17592;SDS011;8915;51.760;14.300;2024-01-07T07:37:49;3.17;;;1.80;;
17592;SDS011;8915;51.760;14.300;2024-01-07T07:40:15;4.03;;;2.10;;
17592;SDS011;8915;51.760;14.300;2024-01-07T07:42:42;3.70;;;2.33;;
17592;SDS011;8915;51.760;14.300;2024-01-07T07:45:08;4.20;;;2.33;;
17592;SDS011;8915;51.760;14.300;2024-01-07T07:47:36;3.50;;;2.10;;
17592;SDS011;8915;51.760;14.300;2024-01-07T07:50:04;3.67;;;2.47;;
17592;SDS011;8915;51.760;14.300;2024-01-07T07:52:32;3.53;;;2.57;;
17592;SDS011;8915;51.760;14.300;2024-01-07T07:54:58;4.10;;;2.27;;
17592;SDS011;8915;51.760;14.300;2024-01-07T07:57:24;2.63;;;2.20;;
17592;SDS011;8915;51.760;14.300;2024-01-07T07:59:51;2.43;;;2.17;;
17592;SDS011;8915;51.760;14.300;2024-01-07T08:02:18;7.07;;;3.60;;
17592;SDS011;8915;51.760;14.300;2024-01-07T08:04:44;3.83;;;2.57;;
17592;SDS011;8915;51.760;14.300;2024-01-07T08:07:12;7.43;;;3.63;;
17592;SDS011;8915;51.760;14.300;2024-01-07T08:09:38;7.33;;;3.60;;
17592;SDS011;8915;51.760;14.300;2024-01-07T08:12:05;10.27;;;5.43;;
17592;SDS011;8915;51.760;14.300;2024-01-07T08:14:32;3.90;;;2.53;;
17592;SDS011;8915;51.760;14.300;2024-01-07T08:16:59;5.67;;;3.00;;
17592;SDS011;8915;51.760;14.300;2024-01-07T08:19:25;3.47;;;2.27;;
17592;SDS011;8915;51.760;14.300;2024-01-07T08:21:52;6.07;;;2.97;;
17592;SDS011;8915;51.760;14.300;2024-01-07T08:24:19;6.70;;;3.10;;
17592;SDS011;8915;51.760;14.300;2024-01-07T08:26:48;8.33;;;4.60;;
17592;SDS011;8915;51.760;14.300;2024-01-07T08:29:15;5.53;;;2.77;;
17592;SDS011;8915;51.760;14.300;2024-01-07T08:31:41;3.90;;;2.70;;
17592;SDS011;8915;51.760;14.300;2024-01-07T08:34:08;7.30;;;3.27;;
17592;SDS011;8915;51.760;14.300;2024-01-07T08:36:34;4.73;;;2.90;;
17592;SDS011;8915;51.760;14.300;2024-01-07T08:39:00;2.77;;;2.10;;
17592;SDS011;8915;51.760;14.300;2024-01-07T08:41:28;6.40;;;3.90;;
17592;SDS011;8915;51.760;14.300;2024-01-07T08:43:53;4.00;;;2.57;;
17592;SDS011;8915;51.760;14.300;2024-01-07T08:46:20;6.40;;;3.57;;
17592;SDS011;8915;51.760;14.300;2024-01-07T08:48:46;4.63;;;2.63;;
17592;SDS011;8915;51.760;14.300;2024-01-07T08:51:13;5.10;;;2.17;;
17592;SDS011;8915;51.760;14.300;2024-01-07T08:53:39;3.07;;;2.10;;
17592;SDS011;8915;51.760;14.300;2024-01-07T08:56:06;3.67;;;2.83;;
17592;SDS011;8915;51.760;14.300;2024-01-07T08:58:34;5.90;;;2.73;;
17592;SDS011;8915;51.760;14.300;2024-01-07T09:01:02;4.37;;;2.50;;
17592;SDS011;8915;51.760;14.300;2024-01-07T09:03:28;3.43;;;2.33;;
17592;SDS011;8915;51.760;14.300;2024-01-07T09:05:55;2.93;;;2.20;;
17592;SDS011;8915;51.760;14.300;2024-01-07T09:08:21;6.87;;;2.80;;
17592;SDS011;8915;51.760;14.300;2024-01-07T09:10:47;4.00;;;2.87;;
17592;SDS011;8915;51.760;14.300;2024-01-07T09:13:14;8.27;;;6.70;;
17592;SDS011;8915;51.760;14.300;2024-01-07T09:15:42;4.87;;;3.47;;
17592;SDS011;8915;51.760;14.300;2024-01-07T09:18:08;4.67;;;2.97;;
17592;SDS011;8915;51.760;14.300;2024-01-07T09:20:34;3.00;;;2.13;;
17592;SDS011;8915;51.760;14.300;2024-01-07T09:23:01;6.20;;;3.23;;
17592;SDS011;8915;51.760;14.300;2024-01-07T09:25:27;5.47;;;2.93;;
17592;SDS011;8915;51.760;14.300;2024-01-07T09:27:54;4.83;;;2.40;;
17592;SDS011;8915;51.760;14.300;2024-01-07T09:30:20;4.03;;;2.57;;
17592;SDS011;8915;51.760;14.300;2024-01-07T09:32:48;4.57;;;2.47;;
17592;SDS011;8915;51.760;14.300;2024-01-07T09:35:15;5.33;;;3.20;;
17592;SDS011;8915;51.760;14.300;2024-01-07T09:37:41;4.30;;;2.60;;
17592;SDS011;8915;51.760;14.300;2024-01-07T09:40:08;2.53;;;2.20;;
17592;SDS011;8915;51.760;14.300;2024-01-07T09:42:35;4.00;;;3.13;;
17592;SDS011;8915;51.760;14.300;2024-01-07T09:45:02;6.67;;;2.83;;
17592;SDS011;8915;51.760;14.300;2024-01-07T09:47:29;3.13;;;2.43;;
17592;SDS011;8915;51.760;14.300;2024-01-07T09:49:57;3.87;;;2.77;;
17592;SDS011;8915;51.760;14.300;2024-01-07T09:52:24;5.57;;;2.87;;
17592;SDS011;8915;51.760;14.300;2024-01-07T09:54:51;3.90;;;2.40;;
17592;SDS011;8915;51.760;14.300;2024-01-07T09:57:23;4.20;;;2.47;;
17592;SDS011;8915;51.760;14.300;2024-01-07T09:59:50;6.87;;;3.07;;
17592;SDS011;8915;51.760;14.300;2024-01-07T10:02:16;4.53;;;2.43;;
17592;SDS011;8915;51.760;14.300;2024-01-07T10:04:43;4.70;;;2.60;;
17592;SDS011;8915;51.760;14.300;2024-01-07T10:07:11;3.97;;;2.53;;
17592;SDS011;8915;51.760;14.300;2024-01-07T10:09:40;6.30;;;3.33;;
17592;SDS011;8915;51.760;14.300;2024-01-07T10:12:07;4.07;;;3.03;;
17592;SDS011;8915;51.760;14.300;2024-01-07T10:14:34;2.93;;;2.33;;
17592;SDS011;8915;51.760;14.300;2024-01-07T10:17:00;3.17;;;2.53;;
17592;SDS011;8915;51.760;14.300;2024-01-07T10:19:27;6.10;;;2.80;;
17592;SDS011;8915;51.760;14.300;2024-01-07T10:21:59;6.67;;;2.90;;
17592;SDS011;8915;51.760;14.300;2024-01-07T10:24:28;5.73;;;3.10;;
17592;SDS011;8915;51.760;14.300;2024-01-07T10:27:01;7.10;;;3.93;;
17592;SDS011;8915;51.760;14.300;2024-01-07T10:29:27;4.37;;;2.80;;
17592;SDS011;8915;51.760;14.300;2024-01-07T10:31:55;4.77;;;2.70;;
17592;SDS011;8915;51.760;14.300;2024-01-07T10:34:21;5.53;;;3.03;;
17592;SDS011;8915;51.760;14.300;2024-01-07T10:36:49;4.60;;;2.83;;
17592;SDS011;8915;51.760;14.300;2024-01-07T10:39:18;8.47;;;5.60;;
17592;SDS011;8915;51.760;14.300;2024-01-07T10:41:47;5.63;;;2.90;;
17592;SDS011;8915;51.760;14.300;2024-01-07T10:44:13;4.07;;;2.53;;
17592;SDS011;8915;51.760;14.300;2024-01-07T10:46:40;3.27;;;2.27;;
17592;SDS011;8915;51.760;14.300;2024-01-07T10:49:10;5.20;;;3.17;;
17592;SDS011;8915;51.760;14.300;2024-01-07T10:51:45;3.77;;;2.70;;
17592;SDS011;8915;51.760;14.300;2024-01-07T10:54:13;7.83;;;3.60;;
17592;SDS011;8915;51.760;14.300;2024-01-07T10:56:44;4.10;;;2.73;;
17592;SDS011;8915;51.760;14.300;2024-01-07T10:59:15;3.57;;;2.60;;
17592;SDS011;8915;51.760;14.300;2024-01-07T11:01:42;4.30;;;2.87;;
17592;SDS011;8915;51.760;14.300;2024-01-07T11:04:10;6.03;;;3.50;;
17592;SDS011;8915;51.760;14.300;2024-01-07T11:06:49;5.07;;;3.30;;
17592;SDS011;8915;51.760;14.300;2024-01-07T11:09:31;6.30;;;3.93;;
17592;SDS011;8915;51.760;14.300;2024-01-07T11:12:02;5.43;;;3.63;;
17592;SDS011;8915;51.760;14.300;2024-01-07T11:14:36;4.67;;;3.10;;
17592;SDS011;8915;51.760;14.300;2024-01-07T11:17:04;4.63;;;3.20;;
17592;SDS011;8915;51.760;14.300;2024-01-07T11:19:32;3.57;;;2.50;;
17592;SDS011;8915;51.760;14.300;2024-01-07T11:24:52;4.57;;;3.00;;
17592;SDS011;8915;51.760;14.300;2024-01-07T11:27:22;4.73;;;3.13;;
17592;SDS011;8915;51.760;14.300;2024-01-07T11:29:52;16.33;;;7.00;;
17592;SDS011;8915;51.760;14.300;2024-01-07T11:32:21;6.17;;;3.77;;
17592;SDS011;8915;51.760;14.300;2024-01-07T11:34:50;8.03;;;4.43;;
17592;SDS011;8915;51.760;14.300;2024-01-07T11:37:18;3.93;;;2.57;;
17592;SDS011;8915;51.760;14.300;2024-01-07T11:39:45;6.63;;;3.20;;
17592;SDS011;8915;51.760;14.300;2024-01-07T11:42:12;3.67;;;2.40;;
17592;SDS011;8915;51.760;14.300;2024-01-07T11:44:45;5.87;;;3.53;;
17592;SDS011;8915;51.760;14.300;2024-01-07T11:47:13;7.03;;;3.53;;
17592;SDS011;8915;51.760;14.300;2024-01-07T11:49:39;5.20;;;3.60;;
17592;SDS011;8915;51.760;14.300;2024-01-07T11:52:06;4.50;;;3.10;;
17592;SDS011;8915;51.760;14.300;2024-01-07T11:54:33;5.30;;;3.33;;
17592;SDS011;8915;51.760;14.300;2024-01-07T11:57:00;4.33;;;3.40;;
17592;SDS011;8915;51.760;14.300;2024-01-07T11:59:28;3.50;;;2.50;;
17592;SDS011;8915;51.760;14.300;2024-01-07T12:01:56;4.73;;;3.10;;
17592;SDS011;8915;51.760;14.300;2024-01-07T12:04:23;5.43;;;3.50;;
17592;SDS011;8915;51.760;14.300;2024-01-07T12:06:50;4.40;;;3.13;;
17592;SDS011;8915;51.760;14.300;2024-01-07T12:09:16;3.40;;;2.80;;
17592;SDS011;8915;51.760;14.300;2024-01-07T12:11:43;4.33;;;2.43;;
17592;SDS011;8915;51.760;14.300;2024-01-07T12:14:10;4.70;;;2.60;;
17592;SDS011;8915;51.760;14.300;2024-01-07T12:16:37;4.13;;;2.93;;
17592;SDS011;8915;51.760;14.300;2024-01-07T12:19:05;3.77;;;2.50;;
17592;SDS011;8915;51.760;14.300;2024-01-07T12:21:31;4.37;;;3.40;;
17592;SDS011;8915;51.760;14.300;2024-01-07T12:23:58;2.93;;;2.57;;
17592;SDS011;8915;51.760;14.300;2024-01-07T12:26:25;3.57;;;2.73;;
17592;SDS011;8915;51.760;14.300;2024-01-07T12:28:53;4.20;;;3.13;;
17592;SDS011;8915;51.760;14.300;2024-01-07T12:31:20;3.63;;;2.37;;
17592;SDS011;8915;51.760;14.300;2024-01-07T12:33:47;2.97;;;2.27;;
17592;SDS011;8915;51.760;14.300;2024-01-07T12:36:15;3.47;;;2.47;;
17592;SDS011;8915;51.760;14.300;2024-01-07T12:38:41;3.77;;;2.70;;
17592;SDS011;8915;51.760;14.300;2024-01-07T12:41:08;3.67;;;2.80;;
17592;SDS011;8915;51.760;14.300;2024-01-07T12:43:36;2.90;;;2.37;;
17592;SDS011;8915;51.760;14.300;2024-01-07T12:46:02;4.80;;;2.60;;
17592;SDS011;8915;51.760;14.300;2024-01-07T12:48:30;3.40;;;2.63;;
17592;SDS011;8915;51.760;14.300;2024-01-07T12:50:56;2.93;;;2.23;;
17592;SDS011;8915;51.760;14.300;2024-01-07T12:53:24;5.03;;;2.73;;
17592;SDS011;8915;51.760;14.300;2024-01-07T12:55:52;3.23;;;2.70;;
17592;SDS011;8915;51.760;14.300;2024-01-07T12:58:18;2.73;;;2.20;;
17592;SDS011;8915;51.760;14.300;2024-01-07T13:00:46;3.03;;;2.40;;
17592;SDS011;8915;51.760;14.300;2024-01-07T13:03:12;3.93;;;2.30;;
17592;SDS011;8915;51.760;14.300;2024-01-07T13:05:42;3.63;;;2.23;;
17592;SDS011;8915;51.760;14.300;2024-01-07T13:08:09;2.50;;;1.80;;
17592;SDS011;8915;51.760;14.300;2024-01-07T13:10:36;3.43;;;2.10;;
17592;SDS011;8915;51.760;14.300;2024-01-07T13:13:03;3.07;;;2.00;;
17592;SDS011;8915;51.760;14.300;2024-01-07T13:15:29;3.30;;;2.23;;
17592;SDS011;8915;51.760;14.300;2024-01-07T13:17:56;3.40;;;2.17;;
17592;SDS011;8915;51.760;14.300;2024-01-07T13:20:22;2.33;;;1.90;;
17592;SDS011;8915;51.760;14.300;2024-01-07T13:22:49;4.53;;;2.40;;
17592;SDS011;8915;51.760;14.300;2024-01-07T13:25:15;3.13;;;2.07;;
17592;SDS011;8915;51.760;14.300;2024-01-07T13:27:43;5.50;;;2.40;;
17592;SDS011;8915;51.760;14.300;2024-01-07T13:30:10;3.77;;;2.40;;
17592;SDS011;8915;51.760;14.300;2024-01-07T13:32:37;3.67;;;2.17;;
17592;SDS011;8915;51.760;14.300;2024-01-07T13:35:04;3.23;;;2.40;;
17592;SDS011;8915;51.760;14.300;2024-01-07T13:37:30;5.63;;;2.53;;
17592;SDS011;8915;51.760;14.300;2024-01-07T13:39:57;3.80;;;2.47;;
17592;SDS011;8915;51.760;14.300;2024-01-07T13:42:23;3.37;;;2.40;;
17592;SDS011;8915;51.760;14.300;2024-01-07T13:44:51;2.57;;;2.20;;
17592;SDS011;8915;51.760;14.300;2024-01-07T13:47:17;4.53;;;2.40;;
17592;SDS011;8915;51.760;14.300;2024-01-07T13:49:44;5.10;;;2.37;;
17592;SDS011;8915;51.760;14.300;2024-01-07T13:52:11;3.37;;;2.30;;
17592;SDS011;8915;51.760;14.300;2024-01-07T13:54:38;4.33;;;2.97;;
17592;SDS011;8915;51.760;14.300;2024-01-07T13:57:04;4.13;;;2.77;;
17592;SDS011;8915;51.760;14.300;2024-01-07T13:59:32;4.87;;;2.97;;
17592;SDS011;8915;51.760;14.300;2024-01-07T14:01:59;6.43;;;3.27;;
17592;SDS011;8915;51.760;14.300;2024-01-07T14:04:27;10.13;;;3.93;;
17592;SDS011;8915;51.760;14.300;2024-01-07T14:06:54;8.43;;;4.00;;
17592;SDS011;8915;51.760;14.300;2024-01-07T14:09:21;6.30;;;3.80;;
17592;SDS011;8915;51.760;14.300;2024-01-07T14:11:47;3.87;;;2.30;;
17592;SDS011;8915;51.760;14.300;2024-01-07T14:14:13;3.73;;;2.53;;
17592;SDS011;8915;51.760;14.300;2024-01-07T14:16:40;4.53;;;3.10;;
17592;SDS011;8915;51.760;14.300;2024-01-07T14:19:07;4.50;;;2.90;;
17592;SDS011;8915;51.760;14.300;2024-01-07T14:21:34;3.30;;;2.40;;
17592;SDS011;8915;51.760;14.300;2024-01-07T14:24:00;5.30;;;3.20;;
17592;SDS011;8915;51.760;14.300;2024-01-07T14:26:28;8.33;;;3.83;;
17592;SDS011;8915;51.760;14.300;2024-01-07T14:28:54;3.60;;;2.60;;
17592;SDS011;8915;51.760;14.300;2024-01-07T14:31:20;4.17;;;2.47;;
17592;SDS011;8915;51.760;14.300;2024-01-07T14:33:47;5.03;;;2.80;;
17592;SDS011;8915;51.760;14.300;2024-01-07T14:36:14;4.43;;;2.80;;
17592;SDS011;8915;51.760;14.300;2024-01-07T14:38:42;5.67;;;2.83;;
17592;SDS011;8915;51.760;14.300;2024-01-07T14:41:10;6.20;;;3.17;;
17592;SDS011;8915;51.760;14.300;2024-01-07T14:43:36;4.57;;;2.60;;
17592;SDS011;8915;51.760;14.300;2024-01-07T14:46:02;4.20;;;2.57;;